sensor_id;sensor_type;location;lat;lon;timestamp;P1;durP1;ratioP1;P2;durP2;ratioP2
1679;SDS011;838;51.794;12.258;2023-04-06T00:01:21;4.40;;;3.20;;
1679;SDS011;838;51.794;12.258;2023-04-06T00:03:47;8.10;;;3.33;;
1679;SDS011;838;51.794;12.258;2023-04-06T00:06:13;6.70;;;3.50;;
1679;SDS011;838;51.794;12.258;2023-04-06T00:08:39;4.10;;;3.23;;
1679;SDS011;838;51.794;12.258;2023-04-06T00:11:04;6.70;;;3.97;;
1679;SDS011;838;51.794;12.258;2023-04-06T00:13:30;5.37;;;3.47;;
1679;SDS011;838;51.794;12.258;2023-04-06T00:15:56;4.93;;;3.23;;
1679;SDS011;838;51.794;12.258;2023-04-06T00:18:22;4.73;;;3.57;;
1679;SDS011;838;51.794;12.258;2023-04-06T00:20:48;5.13;;;3.10;;
1679;SDS011;838;51.794;12.258;2023-04-06T00:23:13;4.57;;;3.43;;
1679;SDS011;838;51.794;12.258;2023-04-06T00:25:39;4.43;;;3.00;;
1679;SDS011;838;51.794;12.258;2023-04-06T00:28:05;5.40;;;3.47;;
1679;SDS011;838;51.794;12.258;2023-04-06T00:30:31;5.63;;;3.33;;
1679;SDS011;838;51.794;12.258;2023-04-06T00:32:56;8.33;;;3.70;;
1679;SDS011;838;51.794;12.258;2023-04-06T00:35:22;5.03;;;3.20;;
1679;SDS011;838;51.794;12.258;2023-04-06T00:37:48;6.33;;;3.73;;
1679;SDS011;838;51.794;12.258;2023-04-06T00:40:13;8.50;;;3.53;;
1679;SDS011;838;51.794;12.258;2023-04-06T00:42:40;7.50;;;3.70;;
1679;SDS011;838;51.794;12.258;2023-04-06T00:45:06;3.70;;;2.93;;
1679;SDS011;838;51.794;12.258;2023-04-06T00:47:33;5.33;;;3.53;;
1679;SDS011;838;51.794;12.258;2023-04-06T00:49:59;4.60;;;3.80;;
1679;SDS011;838;51.794;12.258;2023-04-06T00:52:24;4.37;;;3.33;;
1679;SDS011;838;51.794;12.258;2023-04-06T00:54:50;6.03;;;3.93;;
1679;SDS011;838;51.794;12.258;2023-04-06T00:57:16;5.33;;;3.67;;
1679;SDS011;838;51.794;12.258;2023-04-06T00:59:43;4.53;;;3.60;;
1679;SDS011;838;51.794;12.258;2023-04-06T01:02:09;6.40;;;4.10;;
1679;SDS011;838;51.794;12.258;2023-04-06T01:04:35;10.30;;;3.00;;
1679;SDS011;838;51.794;12.258;2023-04-06T01:07:01;4.90;;;2.87;;
1679;SDS011;838;51.794;12.258;2023-04-06T01:09:27;4.60;;;3.30;;
1679;SDS011;838;51.794;12.258;2023-04-06T01:11:57;9.40;;;3.63;;
1679;SDS011;838;51.794;12.258;2023-04-06T01:14:24;6.90;;;4.10;;
1679;SDS011;838;51.794;12.258;2023-04-06T01:16:51;5.97;;;3.33;;
1679;SDS011;838;51.794;12.258;2023-04-06T01:19:17;5.10;;;3.60;;
1679;SDS011;838;51.794;12.258;2023-04-06T01:21:43;5.70;;;3.30;;
1679;SDS011;838;51.794;12.258;2023-04-06T01:24:09;4.93;;;3.43;;
1679;SDS011;838;51.794;12.258;2023-04-06T01:26:35;6.60;;;3.50;;
1679;SDS011;838;51.794;12.258;2023-04-06T01:29:02;4.90;;;3.10;;
1679;SDS011;838;51.794;12.258;2023-04-06T01:31:28;5.60;;;3.17;;
1679;SDS011;838;51.794;12.258;2023-04-06T01:33:54;4.83;;;3.60;;
1679;SDS011;838;51.794;12.258;2023-04-06T01:36:20;5.00;;;3.70;;
1679;SDS011;838;51.794;12.258;2023-04-06T01:38:46;7.23;;;4.10;;
1679;SDS011;838;51.794;12.258;2023-04-06T01:41:12;5.67;;;3.73;;
1679;SDS011;838;51.794;12.258;2023-04-06T01:43:38;4.80;;;3.67;;
1679;SDS011;838;51.794;12.258;2023-04-06T01:46:04;6.57;;;3.40;;
1679;SDS011;838;51.794;12.258;2023-04-06T01:48:31;5.17;;;3.67;;
1679;SDS011;838;51.794;12.258;2023-04-06T01:50:57;5.57;;;3.97;;
1679;SDS011;838;51.794;12.258;2023-04-06T01:53:23;8.43;;;3.67;;
1679;SDS011;838;51.794;12.258;2023-04-06T01:55:48;7.90;;;3.30;;
1679;SDS011;838;51.794;12.258;2023-04-06T01:58:14;4.60;;;3.07;;
1679;SDS011;838;51.794;12.258;2023-04-06T02:00:40;6.03;;;4.03;;
1679;SDS011;838;51.794;12.258;2023-04-06T02:03:06;4.80;;;3.03;;
1679;SDS011;838;51.794;12.258;2023-04-06T02:05:32;6.37;;;3.33;;
1679;SDS011;838;51.794;12.258;2023-04-06T02:08:03;5.87;;;3.57;;
1679;SDS011;838;51.794;12.258;2023-04-06T02:10:30;7.00;;;3.33;;
1679;SDS011;838;51.794;12.258;2023-04-06T02:12:56;5.00;;;3.30;;
1679;SDS011;838;51.794;12.258;2023-04-06T02:15:22;4.90;;;3.17;;
1679;SDS011;838;51.794;12.258;2023-04-06T02:17:48;5.37;;;3.60;;
1679;SDS011;838;51.794;12.258;2023-04-06T02:20:13;4.43;;;3.60;;
1679;SDS011;838;51.794;12.258;2023-04-06T02:22:39;4.50;;;3.13;;
1679;SDS011;838;51.794;12.258;2023-04-06T02:25:05;7.00;;;3.20;;
1679;SDS011;838;51.794;12.258;2023-04-06T02:27:31;6.50;;;3.23;;
1679;SDS011;838;51.794;12.258;2023-04-06T02:29:57;5.10;;;3.10;;
1679;SDS011;838;51.794;12.258;2023-04-06T02:32:23;6.10;;;4.00;;
1679;SDS011;838;51.794;12.258;2023-04-06T02:34:49;4.60;;;3.57;;
1679;SDS011;838;51.794;12.258;2023-04-06T02:37:15;3.50;;;2.90;;
1679;SDS011;838;51.794;12.258;2023-04-06T02:39:41;5.13;;;3.70;;
1679;SDS011;838;51.794;12.258;2023-04-06T02:42:06;5.77;;;3.33;;
1679;SDS011;838;51.794;12.258;2023-04-06T02:44:33;6.20;;;4.30;;
1679;SDS011;838;51.794;12.258;2023-04-06T02:46:59;5.03;;;3.70;;
1679;SDS011;838;51.794;12.258;2023-04-06T02:49:25;6.43;;;3.60;;
1679;SDS011;838;51.794;12.258;2023-04-06T02:51:51;6.07;;;3.93;;
1679;SDS011;838;51.794;12.258;2023-04-06T02:54:17;7.80;;;3.47;;
1679;SDS011;838;51.794;12.258;2023-04-06T02:56:43;6.37;;;3.23;;
1679;SDS011;838;51.794;12.258;2023-04-06T02:59:09;5.57;;;3.73;;
1679;SDS011;838;51.794;12.258;2023-04-06T03:01:35;7.47;;;3.17;;
1679;SDS011;838;51.794;12.258;2023-04-06T03:04:01;5.20;;;3.40;;
1679;SDS011;838;51.794;12.258;2023-04-06T03:06:27;5.17;;;3.73;;
1679;SDS011;838;51.794;12.258;2023-04-06T03:08:53;8.00;;;4.10;;
1679;SDS011;838;51.794;12.258;2023-04-06T03:11:18;5.30;;;3.70;;
1679;SDS011;838;51.794;12.258;2023-04-06T03:13:45;4.83;;;3.70;;
1679;SDS011;838;51.794;12.258;2023-04-06T03:16:11;4.70;;;4.10;;
1679;SDS011;838;51.794;12.258;2023-04-06T03:18:37;8.10;;;4.90;;
1679;SDS011;838;51.794;12.258;2023-04-06T03:21:02;9.57;;;5.40;;
1679;SDS011;838;51.794;12.258;2023-04-06T03:23:28;6.50;;;4.90;;
1679;SDS011;838;51.794;12.258;2023-04-06T03:25:54;6.80;;;5.07;;
1679;SDS011;838;51.794;12.258;2023-04-06T03:28:20;6.93;;;4.60;;
1679;SDS011;838;51.794;12.258;2023-04-06T03:30:46;6.70;;;4.70;;
1679;SDS011;838;51.794;12.258;2023-04-06T03:33:12;5.73;;;4.37;;
1679;SDS011;838;51.794;12.258;2023-04-06T03:35:37;5.93;;;3.80;;
1679;SDS011;838;51.794;12.258;2023-04-06T03:38:03;8.67;;;4.40;;
1679;SDS011;838;51.794;12.258;2023-04-06T03:40:30;6.90;;;4.87;;
1679;SDS011;838;51.794;12.258;2023-04-06T03:42:57;7.10;;;5.43;;
1679;SDS011;838;51.794;12.258;2023-04-06T03:45:23;7.27;;;5.60;;
1679;SDS011;838;51.794;12.258;2023-04-06T03:47:48;6.40;;;4.33;;
1679;SDS011;838;51.794;12.258;2023-04-06T03:50:14;7.93;;;6.00;;
1679;SDS011;838;51.794;12.258;2023-04-06T03:52:40;9.30;;;5.70;;
1679;SDS011;838;51.794;12.258;2023-04-06T03:55:06;10.00;;;5.60;;
1679;SDS011;838;51.794;12.258;2023-04-06T03:57:32;7.80;;;6.10;;
1679;SDS011;838;51.794;12.258;2023-04-06T03:59:58;7.70;;;5.80;;
1679;SDS011;838;51.794;12.258;2023-04-06T04:02:24;7.07;;;5.30;;
1679;SDS011;838;51.794;12.258;2023-04-06T04:04:50;6.90;;;5.40;;
1679;SDS011;838;51.794;12.258;2023-04-06T04:07:16;6.63;;;5.17;;
1679;SDS011;838;51.794;12.258;2023-04-06T04:09:42;8.47;;;4.93;;
1679;SDS011;838;51.794;12.258;2023-04-06T04:12:07;8.10;;;5.80;;
1679;SDS011;838;51.794;12.258;2023-04-06T04:14:33;8.17;;;5.60;;
1679;SDS011;838;51.794;12.258;2023-04-06T04:16:59;6.30;;;5.37;;
1679;SDS011;838;51.794;12.258;2023-04-06T04:19:25;6.80;;;5.40;;
1679;SDS011;838;51.794;12.258;2023-04-06T04:21:50;7.80;;;5.30;;
1679;SDS011;838;51.794;12.258;2023-04-06T04:24:16;7.50;;;5.33;;
1679;SDS011;838;51.794;12.258;2023-04-06T04:26:42;7.20;;;4.90;;
1679;SDS011;838;51.794;12.258;2023-04-06T04:29:08;9.60;;;6.10;;
1679;SDS011;838;51.794;12.258;2023-04-06T04:31:33;7.33;;;5.50;;
1679;SDS011;838;51.794;12.258;2023-04-06T04:33:59;6.17;;;5.07;;
1679;SDS011;838;51.794;12.258;2023-04-06T04:36:26;12.27;;;6.00;;
1679;SDS011;838;51.794;12.258;2023-04-06T04:38:52;6.43;;;5.40;;
1679;SDS011;838;51.794;12.258;2023-04-06T04:41:18;8.07;;;5.70;;
1679;SDS011;838;51.794;12.258;2023-04-06T04:43:44;8.90;;;5.10;;
1679;SDS011;838;51.794;12.258;2023-04-06T04:46:09;8.57;;;6.70;;
1679;SDS011;838;51.794;12.258;2023-04-06T04:48:35;9.80;;;6.50;;
1679;SDS011;838;51.794;12.258;2023-04-06T04:51:01;11.37;;;6.77;;
1679;SDS011;838;51.794;12.258;2023-04-06T04:53:27;8.83;;;6.10;;
1679;SDS011;838;51.794;12.258;2023-04-06T04:55:53;7.97;;;5.90;;
1679;SDS011;838;51.794;12.258;2023-04-06T04:58:18;10.77;;;6.63;;
1679;SDS011;838;51.794;12.258;2023-04-06T05:00:47;9.10;;;6.10;;
1679;SDS011;838;51.794;12.258;2023-04-06T05:03:20;12.40;;;7.27;;
1679;SDS011;838;51.794;12.258;2023-04-06T05:05:48;11.67;;;7.37;;
1679;SDS011;838;51.794;12.258;2023-04-06T05:08:14;11.00;;;6.77;;
1679;SDS011;838;51.794;12.258;2023-04-06T05:10:40;9.80;;;6.87;;
1679;SDS011;838;51.794;12.258;2023-04-06T05:13:06;9.93;;;6.50;;
1679;SDS011;838;51.794;12.258;2023-04-06T05:15:32;8.47;;;6.10;;
1679;SDS011;838;51.794;12.258;2023-04-06T05:18:03;10.60;;;6.30;;
1679;SDS011;838;51.794;12.258;2023-04-06T05:20:29;9.77;;;6.53;;
1679;SDS011;838;51.794;12.258;2023-04-06T05:22:55;11.67;;;6.43;;
1679;SDS011;838;51.794;12.258;2023-04-06T05:25:21;8.27;;;6.20;;
1679;SDS011;838;51.794;12.258;2023-04-06T05:27:47;8.63;;;6.37;;
1679;SDS011;838;51.794;12.258;2023-04-06T05:30:14;6.23;;;5.60;;
1679;SDS011;838;51.794;12.258;2023-04-06T05:32:40;5.80;;;5.00;;
1679;SDS011;838;51.794;12.258;2023-04-06T05:35:06;8.83;;;5.50;;
1679;SDS011;838;51.794;12.258;2023-04-06T05:37:32;7.30;;;5.80;;
1679;SDS011;838;51.794;12.258;2023-04-06T05:39:58;8.40;;;5.90;;
1679;SDS011;838;51.794;12.258;2023-04-06T05:42:23;6.60;;;5.47;;
1679;SDS011;838;51.794;12.258;2023-04-06T05:44:49;10.00;;;6.30;;
1679;SDS011;838;51.794;12.258;2023-04-06T05:47:15;7.53;;;4.63;;
1679;SDS011;838;51.794;12.258;2023-04-06T05:49:44;11.60;;;5.30;;
1679;SDS011;838;51.794;12.258;2023-04-06T05:52:10;6.43;;;5.10;;
1679;SDS011;838;51.794;12.258;2023-04-06T05:54:36;9.90;;;4.80;;
1679;SDS011;838;51.794;12.258;2023-04-06T05:57:02;7.37;;;4.77;;
1679;SDS011;838;51.794;12.258;2023-04-06T05:59:31;6.33;;;4.23;;
1679;SDS011;838;51.794;12.258;2023-04-06T06:01:57;6.50;;;4.50;;
1679;SDS011;838;51.794;12.258;2023-04-06T06:04:23;7.90;;;4.40;;
1679;SDS011;838;51.794;12.258;2023-04-06T06:06:49;6.10;;;4.33;;
1679;SDS011;838;51.794;12.258;2023-04-06T06:09:15;7.27;;;4.73;;
1679;SDS011;838;51.794;12.258;2023-04-06T06:11:40;7.57;;;5.00;;
1679;SDS011;838;51.794;12.258;2023-04-06T06:14:07;10.50;;;4.57;;
1679;SDS011;838;51.794;12.258;2023-04-06T06:16:33;5.40;;;3.67;;
1679;SDS011;838;51.794;12.258;2023-04-06T06:18:58;5.20;;;4.20;;
1679;SDS011;838;51.794;12.258;2023-04-06T06:21:24;5.60;;;3.77;;
1679;SDS011;838;51.794;12.258;2023-04-06T06:23:50;7.70;;;4.27;;
1679;SDS011;838;51.794;12.258;2023-04-06T06:26:16;6.10;;;3.87;;
1679;SDS011;838;51.794;12.258;2023-04-06T06:28:42;5.20;;;3.80;;
1679;SDS011;838;51.794;12.258;2023-04-06T06:31:08;7.07;;;4.13;;
1679;SDS011;838;51.794;12.258;2023-04-06T06:33:34;5.70;;;4.00;;
1679;SDS011;838;51.794;12.258;2023-04-06T06:36:00;5.10;;;4.20;;
1679;SDS011;838;51.794;12.258;2023-04-06T06:38:25;5.20;;;4.00;;
1679;SDS011;838;51.794;12.258;2023-04-06T06:40:51;9.10;;;3.90;;
1679;SDS011;838;51.794;12.258;2023-04-06T06:43:17;5.67;;;3.90;;
1679;SDS011;838;51.794;12.258;2023-04-06T06:45:43;5.77;;;3.80;;
1679;SDS011;838;51.794;12.258;2023-04-06T06:48:09;7.00;;;4.63;;
1679;SDS011;838;51.794;12.258;2023-04-06T06:50:35;4.73;;;3.80;;
1679;SDS011;838;51.794;12.258;2023-04-06T06:53:01;6.10;;;3.97;;
1679;SDS011;838;51.794;12.258;2023-04-06T06:55:27;6.13;;;4.93;;
1679;SDS011;838;51.794;12.258;2023-04-06T06:57:53;6.23;;;4.20;;
1679;SDS011;838;51.794;12.258;2023-04-06T07:00:19;6.23;;;4.13;;
1679;SDS011;838;51.794;12.258;2023-04-06T07:02:48;6.53;;;5.10;;
1679;SDS011;838;51.794;12.258;2023-04-06T07:05:14;10.33;;;5.10;;
1679;SDS011;838;51.794;12.258;2023-04-06T07:07:40;7.13;;;4.40;;
1679;SDS011;838;51.794;12.258;2023-04-06T07:10:06;5.10;;;4.57;;
1679;SDS011;838;51.794;12.258;2023-04-06T07:12:33;8.10;;;5.10;;
1679;SDS011;838;51.794;12.258;2023-04-06T07:14:59;5.90;;;4.60;;
1679;SDS011;838;51.794;12.258;2023-04-06T07:17:24;8.63;;;4.93;;
1679;SDS011;838;51.794;12.258;2023-04-06T07:19:50;7.43;;;4.87;;
1679;SDS011;838;51.794;12.258;2023-04-06T07:22:16;7.13;;;4.50;;
1679;SDS011;838;51.794;12.258;2023-04-06T07:24:42;7.37;;;4.33;;
1679;SDS011;838;51.794;12.258;2023-04-06T07:27:07;5.90;;;5.20;;
1679;SDS011;838;51.794;12.258;2023-04-06T07:29:33;6.47;;;4.67;;
1679;SDS011;838;51.794;12.258;2023-04-06T07:31:59;7.70;;;5.20;;
1679;SDS011;838;51.794;12.258;2023-04-06T07:34:25;6.87;;;5.40;;
1679;SDS011;838;51.794;12.258;2023-04-06T07:36:50;10.03;;;5.90;;
1679;SDS011;838;51.794;12.258;2023-04-06T07:39:18;5.73;;;5.07;;
1679;SDS011;838;51.794;12.258;2023-04-06T07:41:44;6.03;;;5.30;;
1679;SDS011;838;51.794;12.258;2023-04-06T07:44:10;6.87;;;5.67;;
1679;SDS011;838;51.794;12.258;2023-04-06T07:46:35;7.87;;;5.77;;
1679;SDS011;838;51.794;12.258;2023-04-06T07:49:01;7.30;;;5.20;;
1679;SDS011;838;51.794;12.258;2023-04-06T07:51:27;6.33;;;5.23;;
1679;SDS011;838;51.794;12.258;2023-04-06T07:53:53;11.80;;;7.30;;
1679;SDS011;838;51.794;12.258;2023-04-06T07:56:19;6.63;;;5.93;;
1679;SDS011;838;51.794;12.258;2023-04-06T07:58:46;7.70;;;6.10;;
1679;SDS011;838;51.794;12.258;2023-04-06T08:01:12;8.10;;;6.30;;
1679;SDS011;838;51.794;12.258;2023-04-06T08:03:38;9.07;;;5.43;;
1679;SDS011;838;51.794;12.258;2023-04-06T08:06:04;6.70;;;5.90;;
1679;SDS011;838;51.794;12.258;2023-04-06T08:08:30;10.77;;;5.83;;
1679;SDS011;838;51.794;12.258;2023-04-06T08:10:56;6.50;;;5.47;;
1679;SDS011;838;51.794;12.258;2023-04-06T08:13:22;8.17;;;5.80;;
1679;SDS011;838;51.794;12.258;2023-04-06T08:15:48;6.77;;;5.40;;
1679;SDS011;838;51.794;12.258;2023-04-06T08:18:14;7.90;;;5.73;;
1679;SDS011;838;51.794;12.258;2023-04-06T08:20:40;8.70;;;5.53;;
1679;SDS011;838;51.794;12.258;2023-04-06T08:23:05;7.10;;;6.03;;
1679;SDS011;838;51.794;12.258;2023-04-06T08:25:34;9.17;;;5.83;;
1679;SDS011;838;51.794;12.258;2023-04-06T08:28:01;8.10;;;6.10;;
1679;SDS011;838;51.794;12.258;2023-04-06T08:30:27;8.20;;;6.57;;
1679;SDS011;838;51.794;12.258;2023-04-06T08:32:53;11.03;;;5.77;;
1679;SDS011;838;51.794;12.258;2023-04-06T08:35:19;8.13;;;6.53;;
1679;SDS011;838;51.794;12.258;2023-04-06T08:37:45;7.13;;;6.13;;
1679;SDS011;838;51.794;12.258;2023-04-06T08:40:11;7.33;;;5.87;;
1679;SDS011;838;51.794;12.258;2023-04-06T08:42:42;8.50;;;5.37;;
1679;SDS011;838;51.794;12.258;2023-04-06T08:45:11;7.23;;;5.47;;
1679;SDS011;838;51.794;12.258;2023-04-06T08:47:37;6.93;;;6.07;;
1679;SDS011;838;51.794;12.258;2023-04-06T08:50:04;6.70;;;5.70;;
1679;SDS011;838;51.794;12.258;2023-04-06T08:52:33;7.67;;;5.77;;
1679;SDS011;838;51.794;12.258;2023-04-06T08:55:01;7.47;;;5.60;;
1679;SDS011;838;51.794;12.258;2023-04-06T08:57:28;11.30;;;5.30;;
1679;SDS011;838;51.794;12.258;2023-04-06T08:59:55;7.53;;;5.83;;
1679;SDS011;838;51.794;12.258;2023-04-06T09:02:22;7.30;;;4.77;;
1679;SDS011;838;51.794;12.258;2023-04-06T09:04:48;7.70;;;5.20;;
1679;SDS011;838;51.794;12.258;2023-04-06T09:07:17;7.73;;;5.83;;
1679;SDS011;838;51.794;12.258;2023-04-06T09:09:43;9.30;;;6.83;;
1679;SDS011;838;51.794;12.258;2023-04-06T09:12:22;7.33;;;6.03;;
1679;SDS011;838;51.794;12.258;2023-04-06T09:14:52;6.57;;;5.87;;
1679;SDS011;838;51.794;12.258;2023-04-06T09:17:20;6.63;;;5.57;;
1679;SDS011;838;51.794;12.258;2023-04-06T09:19:49;7.30;;;5.30;;
1679;SDS011;838;51.794;12.258;2023-04-06T09:22:16;8.67;;;5.80;;
1679;SDS011;838;51.794;12.258;2023-04-06T09:24:46;6.70;;;4.73;;
1679;SDS011;838;51.794;12.258;2023-04-06T09:27:32;6.50;;;5.90;;
1679;SDS011;838;51.794;12.258;2023-04-06T09:30:03;6.70;;;5.97;;
1679;SDS011;838;51.794;12.258;2023-04-06T09:32:44;6.93;;;5.87;;
1679;SDS011;838;51.794;12.258;2023-04-06T09:35:20;6.80;;;5.87;;
1679;SDS011;838;51.794;12.258;2023-04-06T09:37:47;9.03;;;5.93;;
1679;SDS011;838;51.794;12.258;2023-04-06T09:40:14;9.13;;;6.80;;
1679;SDS011;838;51.794;12.258;2023-04-06T09:42:42;11.40;;;7.17;;
1679;SDS011;838;51.794;12.258;2023-04-06T09:45:12;9.60;;;7.67;;
1679;SDS011;838;51.794;12.258;2023-04-06T09:47:39;8.03;;;7.00;;
1679;SDS011;838;51.794;12.258;2023-04-06T09:50:08;9.07;;;6.77;;
1679;SDS011;838;51.794;12.258;2023-04-06T09:55:13;9.03;;;6.53;;
1679;SDS011;838;51.794;12.258;2023-04-06T09:57:50;8.80;;;6.00;;
1679;SDS011;838;51.794;12.258;2023-04-06T10:00:19;8.33;;;6.17;;
1679;SDS011;838;51.794;12.258;2023-04-06T10:08:28;9.67;;;6.47;;
1679;SDS011;838;51.794;12.258;2023-04-06T10:10:55;7.30;;;5.80;;
1679;SDS011;838;51.794;12.258;2023-04-06T10:13:21;8.43;;;7.30;;
1679;SDS011;838;51.794;12.258;2023-04-06T10:15:49;8.50;;;6.60;;
1679;SDS011;838;51.794;12.258;2023-04-06T10:18:17;7.87;;;6.97;;
1679;SDS011;838;51.794;12.258;2023-04-06T10:26:04;9.70;;;6.60;;
1679;SDS011;838;51.794;12.258;2023-04-06T10:28:34;8.50;;;6.47;;
1679;SDS011;838;51.794;12.258;2023-04-06T10:31:01;8.13;;;6.53;;
1679;SDS011;838;51.794;12.258;2023-04-06T10:33:30;9.37;;;7.10;;
1679;SDS011;838;51.794;12.258;2023-04-06T10:35:57;7.53;;;6.07;;
1679;SDS011;838;51.794;12.258;2023-04-06T10:38:36;8.90;;;7.00;;
1679;SDS011;838;51.794;12.258;2023-04-06T10:41:03;8.90;;;6.77;;
1679;SDS011;838;51.794;12.258;2023-04-06T10:43:32;8.93;;;6.70;;
1679;SDS011;838;51.794;12.258;2023-04-06T10:46:03;7.77;;;6.97;;
1679;SDS011;838;51.794;12.258;2023-04-06T10:48:40;9.80;;;6.87;;
1679;SDS011;838;51.794;12.258;2023-04-06T10:51:11;8.60;;;7.70;;
1679;SDS011;838;51.794;12.258;2023-04-06T10:53:38;10.20;;;7.37;;
1679;SDS011;838;51.794;12.258;2023-04-06T10:56:09;8.70;;;7.20;;
1679;SDS011;838;51.794;12.258;2023-04-06T10:58:37;9.67;;;7.23;;
1679;SDS011;838;51.794;12.258;2023-04-06T11:01:03;10.03;;;7.33;;
1679;SDS011;838;51.794;12.258;2023-04-06T11:03:29;7.40;;;6.33;;
1679;SDS011;838;51.794;12.258;2023-04-06T11:05:57;7.40;;;6.57;;
1679;SDS011;838;51.794;12.258;2023-04-06T11:10:50;7.57;;;6.77;;
1679;SDS011;838;51.794;12.258;2023-04-06T11:13:16;8.20;;;7.07;;
1679;SDS011;838;51.794;12.258;2023-04-06T11:15:42;7.73;;;6.77;;
1679;SDS011;838;51.794;12.258;2023-04-06T11:18:08;8.13;;;6.20;;
1679;SDS011;838;51.794;12.258;2023-04-06T11:20:34;8.37;;;6.50;;
1679;SDS011;838;51.794;12.258;2023-04-06T11:23:00;9.40;;;7.40;;
1679;SDS011;838;51.794;12.258;2023-04-06T11:25:26;8.33;;;7.03;;
1679;SDS011;838;51.794;12.258;2023-04-06T11:27:54;8.73;;;6.10;;
1679;SDS011;838;51.794;12.258;2023-04-06T11:30:20;8.67;;;6.80;;
1679;SDS011;838;51.794;12.258;2023-04-06T11:32:45;8.43;;;6.63;;
1679;SDS011;838;51.794;12.258;2023-04-06T11:35:13;8.20;;;6.50;;
1679;SDS011;838;51.794;12.258;2023-04-06T11:37:48;6.87;;;6.03;;
1679;SDS011;838;51.794;12.258;2023-04-06T11:40:20;8.30;;;6.67;;
1679;SDS011;838;51.794;12.258;2023-04-06T11:42:54;9.67;;;5.90;;
1679;SDS011;838;51.794;12.258;2023-04-06T11:45:21;7.10;;;6.23;;
1679;SDS011;838;51.794;12.258;2023-04-06T11:47:55;7.97;;;6.63;;
1679;SDS011;838;51.794;12.258;2023-04-06T11:50:23;8.30;;;6.10;;
1679;SDS011;838;51.794;12.258;2023-04-06T11:52:57;8.43;;;6.40;;
1679;SDS011;838;51.794;12.258;2023-04-06T11:55:27;7.90;;;6.07;;
1679;SDS011;838;51.794;12.258;2023-04-06T11:57:53;7.03;;;5.67;;
1679;SDS011;838;51.794;12.258;2023-04-06T12:00:20;7.60;;;5.43;;
1679;SDS011;838;51.794;12.258;2023-04-06T12:02:46;6.57;;;5.47;;
1679;SDS011;838;51.794;12.258;2023-04-06T12:05:13;7.10;;;5.60;;
1679;SDS011;838;51.794;12.258;2023-04-06T12:07:39;7.80;;;6.00;;
1679;SDS011;838;51.794;12.258;2023-04-06T12:10:05;8.80;;;5.80;;
1679;SDS011;838;51.794;12.258;2023-04-06T12:12:31;8.13;;;6.90;;
1679;SDS011;838;51.794;12.258;2023-04-06T12:14:57;6.03;;;5.20;;
1679;SDS011;838;51.794;12.258;2023-04-06T12:17:23;8.43;;;5.37;;
1679;SDS011;838;51.794;12.258;2023-04-06T12:19:49;7.90;;;5.93;;
1679;SDS011;838;51.794;12.258;2023-04-06T12:22:15;8.80;;;6.43;;
1679;SDS011;838;51.794;12.258;2023-04-06T12:24:42;7.97;;;5.93;;
1679;SDS011;838;51.794;12.258;2023-04-06T12:27:08;8.37;;;6.47;;
1679;SDS011;838;51.794;12.258;2023-04-06T12:29:36;8.10;;;6.97;;
1679;SDS011;838;51.794;12.258;2023-04-06T12:32:02;8.23;;;7.00;;
1679;SDS011;838;51.794;12.258;2023-04-06T12:34:27;8.90;;;6.47;;
1679;SDS011;838;51.794;12.258;2023-04-06T12:36:53;8.73;;;6.10;;
1679;SDS011;838;51.794;12.258;2023-04-06T12:39:19;7.33;;;5.40;;
1679;SDS011;838;51.794;12.258;2023-04-06T12:41:46;6.37;;;5.77;;
1679;SDS011;838;51.794;12.258;2023-04-06T12:44:12;7.93;;;5.60;;
1679;SDS011;838;51.794;12.258;2023-04-06T12:46:38;8.40;;;6.60;;
1679;SDS011;838;51.794;12.258;2023-04-06T12:49:03;5.97;;;5.37;;
1679;SDS011;838;51.794;12.258;2023-04-06T12:51:29;6.43;;;5.40;;
1679;SDS011;838;51.794;12.258;2023-04-06T12:53:56;6.23;;;5.13;;
1679;SDS011;838;51.794;12.258;2023-04-06T12:56:22;6.63;;;5.77;;
1679;SDS011;838;51.794;12.258;2023-04-06T12:58:50;6.83;;;5.30;;
1679;SDS011;838;51.794;12.258;2023-04-06T13:01:16;8.17;;;5.40;;
1679;SDS011;838;51.794;12.258;2023-04-06T13:03:42;5.77;;;5.20;;
1679;SDS011;838;51.794;12.258;2023-04-06T13:06:09;5.53;;;5.00;;
1679;SDS011;838;51.794;12.258;2023-04-06T13:08:35;5.93;;;5.33;;
1679;SDS011;838;51.794;12.258;2023-04-06T13:11:03;10.77;;;7.97;;
1679;SDS011;838;51.794;12.258;2023-04-06T13:13:30;7.63;;;6.30;;
1679;SDS011;838;51.794;12.258;2023-04-06T13:16:01;6.43;;;5.50;;
1679;SDS011;838;51.794;12.258;2023-04-06T13:18:30;6.80;;;5.57;;
1679;SDS011;838;51.794;12.258;2023-04-06T13:20:57;6.80;;;5.10;;
1679;SDS011;838;51.794;12.258;2023-04-06T13:23:24;7.10;;;5.47;;
1679;SDS011;838;51.794;12.258;2023-04-06T13:26:00;9.30;;;6.23;;
1679;SDS011;838;51.794;12.258;2023-04-06T13:28:28;7.83;;;7.00;;
1679;SDS011;838;51.794;12.258;2023-04-06T13:30:55;8.23;;;5.83;;
1679;SDS011;838;51.794;12.258;2023-04-06T13:33:23;7.00;;;5.80;;
1679;SDS011;838;51.794;12.258;2023-04-06T13:35:48;6.63;;;5.20;;
1679;SDS011;838;51.794;12.258;2023-04-06T13:38:14;6.47;;;5.40;;
1679;SDS011;838;51.794;12.258;2023-04-06T13:40:41;6.83;;;4.90;;
1679;SDS011;838;51.794;12.258;2023-04-06T13:43:07;8.20;;;5.63;;
1679;SDS011;838;51.794;12.258;2023-04-06T13:45:33;9.67;;;5.33;;
1679;SDS011;838;51.794;12.258;2023-04-06T13:47:59;10.67;;;5.10;;
1679;SDS011;838;51.794;12.258;2023-04-06T13:50:28;4.87;;;4.30;;
1679;SDS011;838;51.794;12.258;2023-04-06T13:52:54;6.47;;;5.60;;
1679;SDS011;838;51.794;12.258;2023-04-06T13:55:21;7.70;;;6.10;;
1679;SDS011;838;51.794;12.258;2023-04-06T13:57:49;6.50;;;5.87;;
1679;SDS011;838;51.794;12.258;2023-04-06T14:00:16;5.53;;;4.90;;
1679;SDS011;838;51.794;12.258;2023-04-06T14:02:42;5.23;;;4.73;;
1679;SDS011;838;51.794;12.258;2023-04-06T14:05:08;9.33;;;5.47;;
1679;SDS011;838;51.794;12.258;2023-04-06T14:07:34;6.50;;;4.80;;
1679;SDS011;838;51.794;12.258;2023-04-06T14:10:00;6.20;;;5.60;;
1679;SDS011;838;51.794;12.258;2023-04-06T14:12:26;6.60;;;6.00;;
1679;SDS011;838;51.794;12.258;2023-04-06T14:14:52;7.37;;;6.13;;
1679;SDS011;838;51.794;12.258;2023-04-06T14:17:18;8.37;;;5.43;;
1679;SDS011;838;51.794;12.258;2023-04-06T14:19:43;6.83;;;5.57;;
1679;SDS011;838;51.794;12.258;2023-04-06T14:22:09;7.17;;;5.67;;
1679;SDS011;838;51.794;12.258;2023-04-06T14:24:35;6.30;;;4.67;;
1679;SDS011;838;51.794;12.258;2023-04-06T14:27:01;6.53;;;5.70;;
1679;SDS011;838;51.794;12.258;2023-04-06T14:29:28;6.83;;;5.00;;
1679;SDS011;838;51.794;12.258;2023-04-06T14:31:53;6.57;;;5.10;;
1679;SDS011;838;51.794;12.258;2023-04-06T14:34:25;6.40;;;5.13;;
1679;SDS011;838;51.794;12.258;2023-04-06T14:36:52;6.80;;;6.10;;
1679;SDS011;838;51.794;12.258;2023-04-06T14:39:17;7.00;;;5.40;;
1679;SDS011;838;51.794;12.258;2023-04-06T14:41:43;6.67;;;5.40;;
1679;SDS011;838;51.794;12.258;2023-04-06T14:44:10;6.83;;;5.70;;
1679;SDS011;838;51.794;12.258;2023-04-06T14:46:37;7.13;;;6.40;;
1679;SDS011;838;51.794;12.258;2023-04-06T14:49:03;6.77;;;5.67;;
1679;SDS011;838;51.794;12.258;2023-04-06T14:51:29;6.47;;;5.70;;
1679;SDS011;838;51.794;12.258;2023-04-06T14:53:55;6.43;;;5.57;;
1679;SDS011;838;51.794;12.258;2023-04-06T14:56:21;6.70;;;6.00;;
1679;SDS011;838;51.794;12.258;2023-04-06T14:58:48;7.40;;;5.93;;
1679;SDS011;838;51.794;12.258;2023-04-06T15:01:15;7.93;;;6.77;;
1679;SDS011;838;51.794;12.258;2023-04-06T15:03:43;8.83;;;6.10;;
1679;SDS011;838;51.794;12.258;2023-04-06T15:06:11;6.60;;;5.90;;
1679;SDS011;838;51.794;12.258;2023-04-06T15:08:39;6.57;;;5.90;;
1679;SDS011;838;51.794;12.258;2023-04-06T15:11:05;10.90;;;6.97;;
1679;SDS011;838;51.794;12.258;2023-04-06T15:13:31;9.67;;;6.90;;
1679;SDS011;838;51.794;12.258;2023-04-06T15:15:57;10.23;;;5.87;;
1679;SDS011;838;51.794;12.258;2023-04-06T15:18:22;9.73;;;6.17;;
1679;SDS011;838;51.794;12.258;2023-04-06T15:20:48;6.73;;;6.13;;
1679;SDS011;838;51.794;12.258;2023-04-06T15:23:14;6.63;;;5.60;;
1679;SDS011;838;51.794;12.258;2023-04-06T15:25:40;6.90;;;6.10;;
1679;SDS011;838;51.794;12.258;2023-04-06T15:28:06;6.83;;;6.13;;